Doylestown, Pennsylvania
Current Conditions -  °F | °C
As of 1:54 PM on Saturday 25 Oct 2014 (Local Time) from KDYL Reporting Station
Few Clouds Few Clouds  
Wind Chill: 66°   Ceiling: Unl
Heat Index: 66°   Visibility: 10mi
Dew Point: 43°   Wind: 15mph
Humidity: 43%   Direction: 290°WNW
Pressure: 29.76"   Gusts: 20mph
Location:  40.31°N, 75.13°W
Report Text: KDYL 251754Z AUTO 29013G17KT 10SM FEW050 19/06 A2976 RMK AO2 SLP078 T01890061 10189 20044 56036 $
Loading
Personal Weather Stations






























Interactive Weather Map New forecast layout! Learn more

10-Day Weather Forecast

Advertisements
Track Severe Weather on mobile